createdAt,value
2022-11-24T00:01:22.024Z,3.55
2022-11-24T00:03:54.959Z,3.72
2022-11-24T00:06:23.507Z,3.72
2022-11-24T00:08:51.643Z,3.75
2022-11-24T00:11:22.189Z,2.85
2022-11-24T00:13:50.788Z,3.47
2022-11-24T00:16:20.667Z,3.00
2022-11-24T00:18:50.722Z,3.80
2022-11-24T00:21:19.629Z,2.70
2022-11-24T00:23:48.183Z,2.78
2022-11-24T00:26:23.542Z,3.00
2022-11-24T00:28:52.782Z,2.60
2022-11-24T00:31:23.790Z,2.83
2022-11-24T00:33:53.648Z,2.83
2022-11-24T00:36:22.992Z,2.90
2022-11-24T00:38:55.860Z,2.92
2022-11-24T00:41:24.879Z,2.90
2022-11-24T00:43:53.211Z,2.63
2022-11-24T00:46:23.554Z,2.78
2022-11-24T00:48:51.705Z,2.50
2022-11-24T00:51:21.419Z,2.05
2022-11-24T00:53:49.686Z,2.83
2022-11-24T00:56:17.568Z,2.20
2022-11-24T00:58:45.567Z,2.55
2022-11-24T01:01:16.060Z,2.17
2022-11-24T01:03:44.511Z,2.08
2022-11-24T01:06:21.120Z,2.28
2022-11-24T01:08:49.325Z,2.13
2022-11-24T01:11:21.817Z,2.25
2022-11-24T01:13:55.307Z,2.15
2022-11-24T01:16:35.039Z,2.40
2022-11-24T01:19:04.195Z,2.25
2022-11-24T01:21:32.093Z,2.20
2022-11-24T01:24:00.478Z,2.28
2022-11-24T01:26:28.593Z,1.75
2022-11-24T01:28:57.831Z,2.25
2022-11-24T01:31:26.952Z,2.08
2022-11-24T01:33:55.271Z,2.20
2022-11-24T01:36:23.385Z,2.45
2022-11-24T01:38:51.737Z,2.20
2022-11-24T01:41:23.910Z,2.05
2022-11-24T01:43:53.203Z,2.00
2022-11-24T01:46:30.006Z,2.15
2022-11-24T01:49:14.075Z,2.58
2022-11-24T01:51:58.518Z,2.03
2022-11-24T01:54:30.451Z,2.40
2022-11-24T01:57:23.919Z,2.25
2022-11-24T01:59:55.315Z,1.95
2022-11-24T02:02:27.881Z,2.10
2022-11-24T02:05:01.020Z,2.25
2022-11-24T02:07:29.221Z,1.70
2022-11-24T02:10:00.210Z,2.53
2022-11-24T02:12:28.654Z,2.20
2022-11-24T02:14:57.240Z,2.33
2022-11-24T02:17:25.348Z,1.85
2022-11-24T02:20:01.361Z,1.73
2022-11-24T02:22:44.789Z,1.98
2022-11-24T02:25:51.284Z,1.80
2022-11-24T02:28:21.741Z,2.10
2022-11-24T02:30:50.446Z,2.47
2022-11-24T02:33:18.654Z,1.98
2022-11-24T02:35:46.548Z,2.35
2022-11-24T02:38:14.710Z,2.10
2022-11-24T02:40:48.397Z,1.90
2022-11-24T02:43:20.280Z,2.00
2022-11-24T02:45:48.395Z,1.58
2022-11-24T02:48:17.316Z,1.60
2022-11-24T02:50:45.288Z,2.15
2022-11-24T02:53:13.395Z,1.55
2022-11-24T02:55:41.430Z,1.75
2022-11-24T02:58:09.524Z,1.65
2022-11-24T03:00:37.470Z,1.35
2022-11-24T03:03:05.558Z,1.50
2022-11-24T03:05:33.598Z,1.92
2022-11-24T03:08:01.627Z,1.55
2022-11-24T03:10:29.659Z,1.95
2022-11-24T03:12:57.739Z,1.50
2022-11-24T03:15:25.848Z,1.50
2022-11-24T03:17:56.900Z,1.90
2022-11-24T03:20:25.505Z,1.83
2022-11-24T03:22:53.753Z,1.58
2022-11-24T03:25:21.641Z,1.85
2022-11-24T03:27:49.467Z,1.95
2022-11-24T03:30:17.872Z,1.67
2022-11-24T03:32:46.047Z,1.65
2022-11-24T03:35:14.020Z,1.35
2022-11-24T03:37:41.962Z,1.40
2022-11-24T03:40:10.333Z,1.45
2022-11-24T03:42:38.189Z,1.73
2022-11-24T03:47:54.788Z,1.40
2022-11-24T03:50:22.778Z,1.40
2022-11-24T03:52:50.829Z,1.40
2022-11-24T03:55:18.824Z,1.70
2022-11-24T03:57:46.800Z,1.30
2022-11-24T04:00:15.260Z,1.45
2022-11-24T04:02:43.370Z,1.30
2022-11-24T04:05:11.472Z,1.45
2022-11-24T04:07:39.431Z,1.60
2022-11-24T04:10:08.081Z,1.20
2022-11-24T04:12:44.621Z,1.10
2022-11-24T04:15:18.280Z,1.80
2022-11-24T04:17:47.320Z,1.38
2022-11-24T04:20:16.106Z,1.60
2022-11-24T04:22:44.336Z,1.40
2022-11-24T04:25:12.617Z,1.50
2022-11-24T04:27:40.854Z,1.10
2022-11-24T04:30:09.522Z,1.42
2022-11-24T04:32:37.920Z,1.42
2022-11-24T04:35:06.121Z,1.60
2022-11-24T04:37:35.500Z,1.42
2022-11-24T04:40:04.189Z,1.60
2022-11-24T04:42:32.600Z,1.80
2022-11-24T04:45:00.852Z,1.35
2022-11-24T04:47:28.956Z,1.17
2022-11-24T04:49:57.072Z,1.25
2022-11-24T04:52:26.354Z,1.00
2022-11-24T04:54:54.215Z,1.10
2022-11-24T04:57:24.954Z,1.50
2022-11-24T04:59:53.430Z,1.30
2022-11-24T05:02:21.493Z,1.10
2022-11-24T05:04:49.607Z,1.20
2022-11-24T05:07:19.544Z,1.15
2022-11-24T05:10:06.869Z,1.02
2022-11-24T05:12:34.793Z,1.63
2022-11-24T05:15:04.398Z,1.17
2022-11-24T05:17:34.024Z,1.00
2022-11-24T05:20:02.034Z,1.10
2022-11-24T05:22:31.879Z,1.30
2022-11-24T05:24:59.996Z,1.00
2022-11-24T05:27:27.899Z,1.15
2022-11-24T05:29:56.134Z,1.30
2022-11-24T05:32:24.136Z,1.30
2022-11-24T05:34:53.345Z,1.30
2022-11-24T05:37:21.603Z,1.17
2022-11-24T05:39:49.539Z,1.50
2022-11-24T05:42:35.796Z,1.10
2022-11-24T05:45:03.831Z,1.00
2022-11-24T05:47:31.756Z,1.50
2022-11-24T05:49:59.661Z,2.05
2022-11-24T05:52:27.583Z,1.30
2022-11-24T05:54:55.527Z,1.85
2022-11-24T05:57:23.360Z,1.90
2022-11-24T05:59:51.459Z,1.58
2022-11-24T06:02:19.582Z,1.65
2022-11-24T06:04:47.658Z,1.77
2022-11-24T06:07:15.933Z,1.50
2022-11-24T06:09:44.388Z,1.38
2022-11-24T06:12:13.408Z,1.42
2022-11-24T06:14:41.601Z,1.40
2022-11-24T06:17:10.774Z,1.85
2022-11-24T06:19:41.939Z,1.40
2022-11-24T06:22:10.200Z,1.65
2022-11-24T06:24:37.971Z,1.63
2022-11-24T06:27:05.860Z,1.63
2022-11-24T06:29:33.846Z,1.92
2022-11-24T06:32:01.852Z,1.17
2022-11-24T06:34:29.789Z,1.58
2022-11-24T06:36:57.855Z,1.60
2022-11-24T06:39:26.016Z,1.45
2022-11-24T06:41:54.112Z,1.20
2022-11-24T06:44:23.096Z,1.60
2022-11-24T06:46:51.127Z,2.13
2022-11-24T06:49:19.035Z,2.20
2022-11-24T06:51:46.979Z,1.77
2022-11-24T06:54:18.669Z,1.65
2022-11-24T06:56:46.542Z,1.48
2022-11-24T06:59:21.404Z,1.55
2022-11-24T07:04:19.247Z,1.73
2022-11-24T07:06:47.713Z,1.50
2022-11-24T07:09:15.767Z,1.77
2022-11-24T07:11:44.283Z,1.75
2022-11-24T07:14:13.074Z,1.40
2022-11-24T07:16:41.384Z,1.73
2022-11-24T07:19:11.583Z,1.42
2022-11-24T07:21:39.582Z,1.83
2022-11-24T07:24:07.701Z,1.65
2022-11-24T07:26:37.779Z,1.70
2022-11-24T07:29:06.540Z,1.63
2022-11-24T07:31:34.497Z,1.50
2022-11-24T07:34:02.639Z,1.83
2022-11-24T07:36:30.786Z,1.98
2022-11-24T07:38:59.056Z,2.05
2022-11-24T07:41:26.964Z,1.85
2022-11-24T07:43:55.031Z,2.08
2022-11-24T07:46:23.163Z,2.08
2022-11-24T07:48:51.127Z,2.25
2022-11-24T07:51:19.017Z,2.40
2022-11-24T07:53:47.015Z,3.45
2022-11-24T07:56:14.945Z,3.25
2022-11-24T07:58:42.654Z,2.40
2022-11-24T08:01:18.075Z,2.67
2022-11-24T08:03:46.918Z,2.63
2022-11-24T08:06:25.008Z,3.28
2022-11-24T08:08:54.117Z,3.80
2022-11-24T08:11:22.280Z,3.20
2022-11-24T08:13:50.325Z,3.20
2022-11-24T08:16:19.568Z,3.28
2022-11-24T08:18:55.498Z,2.85
2022-11-24T08:21:23.838Z,2.58
2022-11-24T08:23:56.408Z,2.90
2022-11-24T08:26:25.337Z,2.60
2022-11-24T08:28:58.275Z,2.53
2022-11-24T08:31:33.430Z,2.65
2022-11-24T08:34:02.718Z,2.63
2022-11-24T08:36:31.293Z,2.97
2022-11-24T08:39:00.606Z,2.45
2022-11-24T08:41:29.166Z,2.53
2022-11-24T08:43:57.662Z,2.75
2022-11-24T08:46:25.698Z,2.20
2022-11-24T08:48:55.213Z,2.60
2022-11-24T08:51:26.304Z,2.55
2022-11-24T08:53:58.956Z,3.15
2022-11-24T08:56:28.552Z,3.00
2022-11-24T08:58:57.206Z,2.90
2022-11-24T09:01:26.001Z,2.03
2022-11-24T09:03:54.199Z,2.63
2022-11-24T09:06:27.700Z,2.95
2022-11-24T09:08:56.130Z,2.35
2022-11-24T09:11:25.478Z,2.22
2022-11-24T09:13:54.489Z,2.33
2022-11-24T09:16:26.434Z,2.50
2022-11-24T09:19:01.269Z,2.65
2022-11-24T09:21:30.173Z,2.50
2022-11-24T09:23:58.514Z,2.70
2022-11-24T09:26:29.437Z,2.30
2022-11-24T09:28:58.517Z,2.72
2022-11-24T09:31:33.700Z,2.63
2022-11-24T09:34:11.119Z,2.50
2022-11-24T09:36:39.150Z,2.47
2022-11-24T09:39:07.051Z,2.67
2022-11-24T09:42:05.288Z,2.00
2022-11-24T09:45:03.447Z,2.58
2022-11-24T09:47:43.370Z,1.92
2022-11-24T09:50:23.143Z,2.17
2022-11-24T09:53:01.542Z,2.47
2022-11-24T09:55:49.048Z,2.10
2022-11-24T09:58:31.968Z,2.00
2022-11-24T10:01:04.801Z,2.13
2022-11-24T10:03:53.305Z,2.50
2022-11-24T10:06:39.135Z,2.38
2022-11-24T10:09:38.538Z,2.30
2022-11-24T10:12:31.122Z,2.42
2022-11-24T10:15:25.878Z,2.60
2022-11-24T10:18:24.440Z,2.10
2022-11-24T10:21:30.355Z,2.25
2022-11-24T10:24:16.483Z,1.95
2022-11-24T10:27:02.143Z,1.83
2022-11-24T10:29:42.807Z,2.03
2022-11-24T10:32:37.718Z,2.30
2022-11-24T10:35:18.245Z,2.47
2022-11-24T10:38:10.201Z,2.33
2022-11-24T10:40:58.065Z,3.17
2022-11-24T10:43:28.370Z,2.40
2022-11-24T10:46:00.402Z,2.65
2022-11-24T10:48:31.961Z,2.28
2022-11-24T10:51:26.331Z,2.97
2022-11-24T10:53:55.598Z,3.20
2022-11-24T10:56:23.480Z,3.13
2022-11-24T10:58:51.238Z,3.03
2022-11-24T11:01:24.639Z,3.70
2022-11-24T11:03:54.371Z,3.38
2022-11-24T11:06:23.716Z,3.63
2022-11-24T11:09:21.202Z,3.92
2022-11-24T11:11:49.914Z,4.03
2022-11-24T11:14:32.499Z,4.32
2022-11-24T11:17:00.340Z,3.83
2022-11-24T11:19:52.394Z,3.60
2022-11-24T11:22:28.817Z,4.63
2022-11-24T11:25:23.778Z,3.67
2022-11-24T11:27:51.923Z,4.17
2022-11-24T11:36:14.829Z,5.85
2022-11-24T11:38:44.280Z,4.85
2022-11-24T11:41:20.138Z,3.80
2022-11-24T11:43:50.054Z,5.55
2022-11-24T11:46:18.020Z,4.50
2022-11-24T11:48:47.146Z,4.82
2022-11-24T11:54:38.238Z,4.15
2022-11-24T11:57:41.655Z,4.47
2022-11-24T12:00:24.781Z,4.25
2022-11-24T12:03:26.459Z,3.30
2022-11-24T12:06:15.592Z,3.95
2022-11-24T12:09:19.672Z,3.80
2022-11-24T12:12:18.982Z,4.57
2022-11-24T12:15:10.559Z,3.85
2022-11-24T12:17:49.073Z,5.30
2022-11-24T12:20:43.319Z,4.72
2022-11-24T12:23:51.882Z,3.85
2022-11-24T12:26:40.461Z,4.15
2022-11-24T12:29:24.616Z,4.30
2022-11-24T12:31:55.310Z,3.85
2022-11-24T12:34:56.863Z,3.92
2022-11-24T12:37:55.337Z,3.58
2022-11-24T12:40:47.313Z,3.05
2022-11-24T12:43:19.764Z,3.50
2022-11-24T12:45:54.242Z,4.03
2022-11-24T12:48:33.068Z,3.67
2022-11-24T12:51:01.894Z,2.78
2022-11-24T12:53:35.333Z,2.97
2022-11-24T12:56:12.117Z,3.15
2022-11-24T12:59:09.793Z,2.70
2022-11-24T13:01:52.497Z,3.15
2022-11-24T13:04:23.297Z,3.35
2022-11-24T13:07:13.654Z,2.88
2022-11-24T13:10:54.762Z,3.50
2022-11-24T13:13:24.035Z,2.70
2022-11-24T13:16:34.525Z,2.67
2022-11-24T13:19:06.445Z,2.53
2022-11-24T13:21:45.599Z,2.92
2022-11-24T13:24:20.224Z,3.10
2022-11-24T13:26:50.867Z,2.83
2022-11-24T13:29:32.264Z,3.38
2022-11-24T13:32:03.163Z,2.97
2022-11-24T13:34:43.032Z,2.55
2022-11-24T13:37:31.608Z,2.70
2022-11-24T13:40:23.288Z,2.85
2022-11-24T13:43:01.618Z,2.85
2022-11-24T13:45:56.095Z,3.00
2022-11-24T13:48:23.964Z,2.50
2022-11-24T13:50:52.321Z,2.53
2022-11-24T13:53:35.254Z,2.42
2022-11-24T13:56:17.776Z,2.05
2022-11-24T13:58:57.976Z,2.88
2022-11-24T14:01:33.631Z,2.13
2022-11-24T14:04:33.046Z,2.20
2022-11-24T14:07:09.055Z,2.05
2022-11-24T14:09:46.836Z,1.83
2022-11-24T14:12:20.744Z,2.05
2022-11-24T14:14:50.335Z,2.38
2022-11-24T14:17:20.985Z,2.88
2022-11-24T14:19:50.531Z,1.98
2022-11-24T14:22:27.084Z,2.03
2022-11-24T14:24:57.268Z,2.42
2022-11-24T14:27:30.352Z,2.15
2022-11-24T14:30:04.808Z,2.30
2022-11-24T14:32:32.735Z,2.00
2022-11-24T14:35:00.652Z,1.70
2022-11-24T14:37:31.320Z,1.60
2022-11-24T14:39:59.164Z,2.17
2022-11-24T14:42:28.010Z,2.40
2022-11-24T14:45:04.105Z,2.10
2022-11-24T14:47:34.129Z,2.55
2022-11-24T14:50:16.911Z,1.30
2022-11-24T14:52:49.261Z,2.38
2022-11-24T14:55:32.324Z,2.53
2022-11-24T14:58:00.610Z,2.30
2022-11-24T15:00:29.771Z,2.00
2022-11-24T15:03:18.918Z,1.75
2022-11-24T15:05:58.752Z,2.28
2022-11-24T15:08:28.331Z,2.13
2022-11-24T15:11:03.601Z,2.00
2022-11-24T15:13:37.499Z,1.88
2022-11-24T15:16:25.617Z,1.98
2022-11-24T15:19:01.544Z,2.35
2022-11-24T15:21:37.338Z,1.75
2022-11-24T15:24:07.197Z,1.95
2022-11-24T15:26:40.197Z,1.95
2022-11-24T15:29:13.388Z,2.22
2022-11-24T15:31:44.212Z,1.75
2022-11-24T15:34:19.631Z,2.38
2022-11-24T15:36:47.636Z,1.60
2022-11-24T15:39:15.408Z,1.98
2022-11-24T15:41:43.261Z,2.40
2022-11-24T15:44:11.444Z,2.05
2022-11-24T15:46:40.013Z,2.42
2022-11-24T15:49:07.958Z,2.10
2022-11-24T15:51:36.691Z,1.95
2022-11-24T15:54:04.507Z,2.00
2022-11-24T15:56:37.074Z,1.42
2022-11-24T15:59:05.133Z,1.60
2022-11-24T16:01:34.038Z,1.83
2022-11-24T16:04:03.159Z,2.05
2022-11-24T16:06:31.184Z,1.80
2022-11-24T16:08:59.277Z,1.80
2022-11-24T16:11:27.386Z,2.05
2022-11-24T16:13:55.300Z,1.88
2022-11-24T16:16:25.633Z,1.92
2022-11-24T16:18:53.935Z,3.17
2022-11-24T16:21:22.270Z,1.75
2022-11-24T16:23:49.955Z,1.75
2022-11-24T16:26:20.272Z,2.10
2022-11-24T16:28:48.237Z,1.65
2022-11-24T16:31:16.554Z,1.60
2022-11-24T16:33:46.643Z,1.95
2022-11-24T16:36:15.092Z,1.77
2022-11-24T16:38:42.965Z,1.92
2022-11-24T16:41:11.367Z,2.00
2022-11-24T16:43:39.392Z,2.88
2022-11-24T16:46:17.558Z,3.10
2022-11-24T16:48:47.043Z,3.13
2022-11-24T16:51:15.781Z,2.78
2022-11-24T16:53:43.788Z,2.95
2022-11-24T16:56:11.833Z,2.45
2022-11-24T16:58:41.463Z,2.60
2022-11-24T17:01:11.945Z,2.45
2022-11-24T17:03:40.276Z,2.35
2022-11-24T17:06:13.390Z,2.35
2022-11-24T17:08:42.374Z,2.33
2022-11-24T17:11:16.142Z,2.63
2022-11-24T17:13:45.724Z,2.50
2022-11-24T17:16:16.074Z,2.60
2022-11-24T17:18:43.977Z,2.58
2022-11-24T17:21:14.628Z,2.45
2022-11-24T17:23:42.990Z,2.88
2022-11-24T17:26:18.104Z,3.17
2022-11-24T17:28:46.328Z,2.22
2022-11-24T17:31:20.243Z,2.78
2022-11-24T17:33:49.071Z,2.30
2022-11-24T17:36:17.374Z,2.60
2022-11-24T17:38:45.507Z,3.80
2022-11-24T17:41:14.247Z,3.95
2022-11-24T17:43:42.373Z,4.55
2022-11-24T17:46:11.496Z,4.07
2022-11-24T17:48:39.427Z,4.75
2022-11-24T17:51:10.782Z,4.35
2022-11-24T17:53:39.476Z,4.50
2022-11-24T17:56:08.218Z,3.88
2022-11-24T17:58:42.554Z,4.25
2022-11-24T18:03:40.392Z,3.55
2022-11-24T18:06:13.651Z,4.10
2022-11-24T18:08:43.315Z,3.25
2022-11-24T18:11:13.114Z,3.28
2022-11-24T18:13:56.493Z,2.85
2022-11-24T18:16:28.367Z,3.00
2022-11-24T18:19:14.342Z,2.60
2022-11-24T18:21:43.862Z,3.05
2022-11-24T18:24:12.833Z,2.70
2022-11-24T18:26:44.279Z,2.53
2022-11-24T18:29:12.617Z,2.53
2022-11-24T18:31:40.694Z,2.50
2022-11-24T18:34:08.981Z,3.20
2022-11-24T18:36:37.169Z,2.90
2022-11-24T18:39:06.568Z,3.10
2022-11-24T18:41:34.422Z,3.63
2022-11-24T18:44:03.344Z,2.35
2022-11-24T18:46:31.405Z,3.05
2022-11-24T18:48:59.424Z,2.75
2022-11-24T18:51:27.405Z,2.88
2022-11-24T18:53:55.603Z,2.95
2022-11-24T18:56:24.366Z,2.47
2022-11-24T18:58:56.176Z,2.63
2022-11-24T19:01:26.192Z,2.60
2022-11-24T19:03:56.663Z,3.17
2022-11-24T19:06:32.919Z,2.05
2022-11-24T19:09:06.103Z,2.28
2022-11-24T19:11:39.416Z,2.00
2022-11-24T19:14:08.832Z,3.17
2022-11-24T19:16:36.776Z,2.30
2022-11-24T19:19:04.829Z,2.30
2022-11-24T19:21:34.292Z,2.90
2022-11-24T19:24:05.383Z,2.17
2022-11-24T19:26:35.315Z,2.28
2022-11-24T19:29:03.894Z,2.30
2022-11-24T19:31:31.948Z,2.22
2022-11-24T19:34:00.258Z,3.58
2022-11-24T19:36:28.233Z,2.03
2022-11-24T19:38:57.845Z,2.10
2022-11-24T19:41:30.636Z,2.38
2022-11-24T19:43:59.241Z,2.70
2022-11-24T19:46:29.861Z,2.75
2022-11-24T19:49:00.250Z,2.47
2022-11-24T19:51:31.352Z,2.72
2022-11-24T19:54:00.224Z,2.75
2022-11-24T19:56:30.367Z,2.88
2022-11-24T19:58:58.458Z,2.42
2022-11-24T20:01:29.612Z,2.35
2022-11-24T20:04:00.326Z,2.22
2022-11-24T20:06:40.479Z,3.03
2022-11-24T20:09:11.127Z,2.72
2022-11-24T20:11:39.676Z,2.40
2022-11-24T20:14:08.302Z,4.15
2022-11-24T20:16:36.393Z,2.50
2022-11-24T20:19:11.312Z,2.50
2022-11-24T20:21:39.908Z,2.80
2022-11-24T20:24:13.699Z,3.22
2022-11-24T20:26:44.316Z,3.53
2022-11-24T20:29:13.417Z,4.15
2022-11-24T20:31:44.317Z,4.53
2022-11-24T20:34:12.558Z,3.53
2022-11-24T20:36:43.385Z,4.07
2022-11-24T20:39:21.849Z,3.92
2022-11-24T20:41:52.362Z,3.22
2022-11-24T20:44:22.435Z,3.13
2022-11-24T20:46:50.686Z,3.42
2022-11-24T20:49:20.510Z,3.47
2022-11-24T20:51:48.876Z,3.33
2022-11-24T20:54:18.311Z,3.00
2022-11-24T20:56:49.053Z,3.20
2022-11-24T20:59:21.742Z,3.17
2022-11-24T21:01:50.326Z,3.03
2022-11-24T21:04:23.793Z,3.13
2022-11-24T21:06:51.793Z,3.30
2022-11-24T21:09:20.240Z,3.42
2022-11-24T21:11:48.121Z,2.83
2022-11-24T21:14:16.225Z,3.05
2022-11-24T21:16:44.842Z,3.33
2022-11-24T21:19:14.928Z,3.15
2022-11-24T21:21:43.391Z,3.67
2022-11-24T21:24:16.439Z,2.47
2022-11-24T21:26:47.736Z,2.90
2022-11-24T21:29:17.976Z,2.88
2022-11-24T21:31:45.865Z,2.30
2022-11-24T21:34:16.148Z,2.85
2022-11-24T21:36:46.444Z,2.80
2022-11-24T21:39:15.398Z,3.33
2022-11-24T21:41:43.617Z,2.88
2022-11-24T21:44:13.656Z,2.97
2022-11-24T21:46:46.220Z,2.42
2022-11-24T21:49:18.995Z,2.28
2022-11-24T21:51:47.645Z,3.50
2022-11-24T21:54:15.489Z,2.45
2022-11-24T21:56:43.434Z,2.67
2022-11-24T21:59:11.326Z,2.63
2022-11-24T22:01:39.386Z,2.58
2022-11-24T22:04:07.481Z,3.10
2022-11-24T22:06:35.596Z,2.88
2022-11-24T22:09:03.608Z,2.85
2022-11-24T22:11:40.227Z,3.20
2022-11-24T22:14:12.208Z,3.63
2022-11-24T22:16:40.892Z,2.50
2022-11-24T22:19:11.660Z,2.88
2022-11-24T22:21:42.829Z,2.30
2022-11-24T22:24:13.631Z,2.33
2022-11-24T22:26:41.607Z,2.60
2022-11-24T22:29:09.682Z,2.75
2022-11-24T22:31:37.854Z,2.40
2022-11-24T22:34:05.838Z,2.33
2022-11-24T22:36:33.770Z,2.38
2022-11-24T22:39:05.064Z,2.28
2022-11-24T22:41:34.994Z,2.58
2022-11-24T22:44:03.568Z,2.55
2022-11-24T22:46:32.346Z,2.40
2022-11-24T22:49:01.210Z,2.55
2022-11-24T22:51:32.567Z,2.17
2022-11-24T22:54:03.143Z,2.83
2022-11-24T22:56:34.472Z,2.47
2022-11-24T22:59:03.375Z,2.70
2022-11-24T23:01:32.508Z,2.42
2022-11-24T23:04:00.548Z,2.10
2022-11-24T23:06:30.627Z,2.60
2022-11-24T23:09:00.184Z,2.13
2022-11-24T23:11:37.457Z,2.10
2022-11-24T23:14:07.776Z,2.30
2022-11-24T23:16:35.898Z,2.10
2022-11-24T23:19:06.538Z,1.83
2022-11-24T23:21:36.627Z,2.28
2022-11-24T23:24:05.381Z,2.40
2022-11-24T23:26:37.113Z,2.13
2022-11-24T23:29:06.519Z,2.35
2022-11-24T23:31:34.873Z,1.88
2022-11-24T23:34:04.258Z,2.35
2022-11-24T23:36:32.904Z,2.42
2022-11-24T23:39:08.773Z,1.95
2022-11-24T23:41:36.647Z,2.67
2022-11-24T23:44:05.040Z,3.13
2022-11-24T23:46:33.078Z,3.40
2022-11-24T23:49:01.125Z,3.50
2022-11-24T23:51:36.292Z,3.42
2022-11-24T23:56:58.550Z,2.58
2022-11-24T23:59:27.232Z,2.10
